sensor_id;sensor_type;location;lat;lon;timestamp;pressure;altitude;pressure_sealevel;temperature;humidity
74578;BME280;63173;49.086;33.418;2023-05-24T00:01:17;100238.94;;;17.22;94.10
74578;BME280;63173;49.086;33.418;2023-05-24T00:03:52;100243.41;;;17.26;93.88
74578;BME280;63173;49.086;33.418;2023-05-24T00:06:20;100247.66;;;17.24;94.07
74578;BME280;63173;49.086;33.418;2023-05-24T00:08:46;100251.50;;;17.23;93.38
74578;BME280;63173;49.086;33.418;2023-05-24T00:11:12;100251.03;;;17.21;94.66
74578;BME280;63173;49.086;33.418;2023-05-24T00:13:37;100255.53;;;17.25;94.05
74578;BME280;63173;49.086;33.418;2023-05-24T00:16:03;100254.84;;;17.37;93.77
74578;BME280;63173;49.086;33.418;2023-05-24T00:18:29;100249.00;;;17.38;93.02
74578;BME280;63173;49.086;33.418;2023-05-24T00:20:56;100253.06;;;17.32;93.05
74578;BME280;63173;49.086;33.418;2023-05-24T00:23:23;100257.38;;;17.50;93.10
74578;BME280;63173;49.086;33.418;2023-05-24T00:25:50;100255.03;;;17.61;91.51
74578;BME280;63173;49.086;33.418;2023-05-24T00:28:15;100259.66;;;17.69;91.29
74578;BME280;63173;49.086;33.418;2023-05-24T00:30:41;100257.63;;;17.57;92.00
74578;BME280;63173;49.086;33.418;2023-05-24T00:33:06;100250.81;;;17.63;91.62
74578;BME280;63173;49.086;33.418;2023-05-24T00:35:31;100247.69;;;17.44;91.44
74578;BME280;63173;49.086;33.418;2023-05-24T00:37:57;100244.97;;;17.36;92.22
74578;BME280;63173;49.086;33.418;2023-05-24T00:40:23;100249.81;;;17.10;93.62
74578;BME280;63173;49.086;33.418;2023-05-24T00:42:48;100243.63;;;17.21;93.82
74578;BME280;63173;49.086;33.418;2023-05-24T00:45:14;100248.16;;;17.17;93.17
74578;BME280;63173;49.086;33.418;2023-05-24T00:47:40;100253.72;;;17.00;93.94
74578;BME280;63173;49.086;33.418;2023-05-24T00:50:07;100250.22;;;16.91;95.00
74578;BME280;63173;49.086;33.418;2023-05-24T00:52:35;100252.44;;;16.98;94.55
74578;BME280;63173;49.086;33.418;2023-05-24T00:55:01;100250.09;;;16.79;94.00
74578;BME280;63173;49.086;33.418;2023-05-24T00:57:26;100255.03;;;17.03;93.33
74578;BME280;63173;49.086;33.418;2023-05-24T00:59:54;100247.28;;;16.96;93.54
74578;BME280;63173;49.086;33.418;2023-05-24T01:02:20;100241.91;;;17.08;93.62
74578;BME280;63173;49.086;33.418;2023-05-24T01:04:46;100241.78;;;17.05;94.31
74578;BME280;63173;49.086;33.418;2023-05-24T01:10:08;100246.56;;;17.16;92.39
74578;BME280;63173;49.086;33.418;2023-05-24T01:13:04;100252.59;;;17.30;91.84
74578;BME280;63173;49.086;33.418;2023-05-24T01:18:20;100255.81;;;17.32;91.56
74578;BME280;63173;49.086;33.418;2023-05-24T01:21:02;100254.88;;;17.28;91.53
74578;BME280;63173;49.086;33.418;2023-05-24T01:26:44;100268.53;;;17.16;91.71
74578;BME280;63173;49.086;33.418;2023-05-24T01:29:12;100269.75;;;17.27;92.05
74578;BME280;63173;49.086;33.418;2023-05-24T01:31:39;100266.53;;;17.25;92.11
74578;BME280;63173;49.086;33.418;2023-05-24T01:34:05;100267.66;;;17.24;92.79
74578;BME280;63173;49.086;33.418;2023-05-24T01:36:30;100273.28;;;16.90;94.35
74578;BME280;63173;49.086;33.418;2023-05-24T01:38:56;100263.91;;;17.00;93.37
74578;BME280;63173;49.086;33.418;2023-05-24T01:41:35;100258.34;;;16.79;94.28
74578;BME280;63173;49.086;33.418;2023-05-24T01:44:17;100267.38;;;16.88;94.28
74578;BME280;63173;49.086;33.418;2023-05-24T01:46:55;100256.22;;;16.84;94.11
74578;BME280;63173;49.086;33.418;2023-05-24T01:49:26;100258.25;;;16.96;94.39
74578;BME280;63173;49.086;33.418;2023-05-24T01:54:25;100251.53;;;16.85;94.00
74578;BME280;63173;49.086;33.418;2023-05-24T01:56:53;100258.13;;;16.92;92.92
74578;BME280;63173;49.086;33.418;2023-05-24T01:59:21;100267.09;;;16.64;94.78
74578;BME280;63173;49.086;33.418;2023-05-24T02:01:47;100264.91;;;16.95;93.75
74578;BME280;63173;49.086;33.418;2023-05-24T02:04:13;100263.91;;;17.00;93.65
74578;BME280;63173;49.086;33.418;2023-05-24T02:06:39;100256.38;;;16.88;94.70
74578;BME280;63173;49.086;33.418;2023-05-24T02:09:04;100257.03;;;16.85;94.35
74578;BME280;63173;49.086;33.418;2023-05-24T02:11:30;100255.25;;;16.89;94.80
74578;BME280;63173;49.086;33.418;2023-05-24T02:13:55;100261.34;;;16.94;94.39
74578;BME280;63173;49.086;33.418;2023-05-24T02:16:20;100260.59;;;16.77;94.44
74578;BME280;63173;49.086;33.418;2023-05-24T02:18:48;100265.06;;;16.90;94.21
74578;BME280;63173;49.086;33.418;2023-05-24T02:21:14;100261.56;;;16.81;94.31
74578;BME280;63173;49.086;33.418;2023-05-24T02:23:40;100265.59;;;16.83;94.75
74578;BME280;63173;49.086;33.418;2023-05-24T02:26:06;100268.66;;;16.82;94.83
74578;BME280;63173;49.086;33.418;2023-05-24T02:28:35;100262.91;;;16.58;95.70
74578;BME280;63173;49.086;33.418;2023-05-24T02:31:01;100267.47;;;16.54;97.36
74578;BME280;63173;49.086;33.418;2023-05-24T02:33:26;100265.66;;;16.66;96.60
74578;BME280;63173;49.086;33.418;2023-05-24T02:35:54;100267.53;;;16.83;95.25
74578;BME280;63173;49.086;33.418;2023-05-24T02:38:20;100266.16;;;16.98;94.51
74578;BME280;63173;49.086;33.418;2023-05-24T02:40:45;100262.91;;;17.04;94.51
74578;BME280;63173;49.086;33.418;2023-05-24T02:43:10;100265.88;;;16.90;94.22
74578;BME280;63173;49.086;33.418;2023-05-24T02:45:36;100266.47;;;16.67;95.41
74578;BME280;63173;49.086;33.418;2023-05-24T02:48:02;100255.94;;;16.77;95.71
74578;BME280;63173;49.086;33.418;2023-05-24T02:50:27;100268.53;;;17.08;94.38
74578;BME280;63173;49.086;33.418;2023-05-24T02:52:52;100269.91;;;17.22;93.06
74578;BME280;63173;49.086;33.418;2023-05-24T02:55:18;100266.66;;;17.29;92.50
74578;BME280;63173;49.086;33.418;2023-05-24T02:57:43;100269.38;;;17.37;91.65
74578;BME280;63173;49.086;33.418;2023-05-24T03:00:09;100279.22;;;17.38;92.04
74578;BME280;63173;49.086;33.418;2023-05-24T03:02:35;100274.75;;;17.25;92.55
74578;BME280;63173;49.086;33.418;2023-05-24T03:05:03;100274.53;;;17.39;91.18
74578;BME280;63173;49.086;33.418;2023-05-24T03:07:28;100272.97;;;17.58;90.79
74578;BME280;63173;49.086;33.418;2023-05-24T03:09:54;100280.41;;;17.58;90.03
74578;BME280;63173;49.086;33.418;2023-05-24T03:12:19;100288.38;;;17.71;89.68
74578;BME280;63173;49.086;33.418;2023-05-24T03:14:45;100285.56;;;17.59;89.49
74578;BME280;63173;49.086;33.418;2023-05-24T03:17:10;100289.53;;;17.70;89.70
74578;BME280;63173;49.086;33.418;2023-05-24T03:19:35;100291.16;;;18.13;87.95
74578;BME280;63173;49.086;33.418;2023-05-24T03:22:01;100287.03;;;18.19;87.92
74578;BME280;63173;49.086;33.418;2023-05-24T03:24:27;100286.09;;;18.35;86.71
74578;BME280;63173;49.086;33.418;2023-05-24T03:26:53;100287.31;;;18.26;87.72
74578;BME280;63173;49.086;33.418;2023-05-24T03:29:18;100286.34;;;18.42;86.58
74578;BME280;63173;49.086;33.418;2023-05-24T03:31:43;100290.38;;;18.45;86.42
74578;BME280;63173;49.086;33.418;2023-05-24T03:34:09;100291.94;;;18.13;87.36
74578;BME280;63173;49.086;33.418;2023-05-24T03:36:34;100289.25;;;18.25;87.35
74578;BME280;63173;49.086;33.418;2023-05-24T03:39:00;100292.50;;;18.39;86.50
74578;BME280;63173;49.086;33.418;2023-05-24T03:41:28;100295.91;;;18.57;85.94
74578;BME280;63173;49.086;33.418;2023-05-24T03:43:54;100294.56;;;18.63;86.11
74578;BME280;63173;49.086;33.418;2023-05-24T03:46:19;100291.16;;;18.78;85.02
74578;BME280;63173;49.086;33.418;2023-05-24T03:48:45;100299.31;;;18.87;84.91
74578;BME280;63173;49.086;33.418;2023-05-24T03:51:10;100294.31;;;18.68;85.09
74578;BME280;63173;49.086;33.418;2023-05-24T03:53:35;100297.34;;;18.75;85.98
74578;BME280;63173;49.086;33.418;2023-05-24T03:56:01;100298.31;;;19.03;84.06
74578;BME280;63173;49.086;33.418;2023-05-24T03:58:26;100298.19;;;19.12;83.80
74578;BME280;63173;49.086;33.418;2023-05-24T04:00:52;100300.59;;;19.01;84.13
74578;BME280;63173;49.086;33.418;2023-05-24T04:03:17;100301.28;;;19.10;84.24
74578;BME280;63173;49.086;33.418;2023-05-24T04:05:44;100300.50;;;19.22;84.13
74578;BME280;63173;49.086;33.418;2023-05-24T04:08:10;100292.38;;;19.37;82.93
74578;BME280;63173;49.086;33.418;2023-05-24T04:10:36;100300.16;;;19.11;85.38
74578;BME280;63173;49.086;33.418;2023-05-24T04:13:02;100295.00;;;19.46;82.99
74578;BME280;63173;49.086;33.418;2023-05-24T04:15:27;100286.84;;;19.25;83.69
74578;BME280;63173;49.086;33.418;2023-05-24T04:17:53;100290.53;;;19.41;83.72
74578;BME280;63173;49.086;33.418;2023-05-24T04:20:20;100289.50;;;19.46;83.29
74578;BME280;63173;49.086;33.418;2023-05-24T04:22:49;100295.34;;;19.56;82.78
74578;BME280;63173;49.086;33.418;2023-05-24T04:25:15;100287.75;;;19.17;83.97
74578;BME280;63173;49.086;33.418;2023-05-24T04:27:41;100290.84;;;19.16;85.20
74578;BME280;63173;49.086;33.418;2023-05-24T04:30:06;100293.41;;;19.45;83.71
74578;BME280;63173;49.086;33.418;2023-05-24T04:32:33;100297.03;;;19.61;84.38
74578;BME280;63173;49.086;33.418;2023-05-24T04:34:59;100298.31;;;19.51;83.81
74578;BME280;63173;49.086;33.418;2023-05-24T04:37:27;100293.91;;;19.87;83.75
74578;BME280;63173;49.086;33.418;2023-05-24T04:39:53;100295.97;;;19.90;82.73
74578;BME280;63173;49.086;33.418;2023-05-24T04:42:19;100299.50;;;19.50;84.37
74578;BME280;63173;49.086;33.418;2023-05-24T04:44:45;100293.59;;;19.16;86.77
74578;BME280;63173;49.086;33.418;2023-05-24T04:47:10;100298.28;;;18.79;87.61
74578;BME280;63173;49.086;33.418;2023-05-24T04:49:37;100299.75;;;18.76;88.84
74578;BME280;63173;49.086;33.418;2023-05-24T04:52:03;100290.38;;;18.90;87.22
74578;BME280;63173;49.086;33.418;2023-05-24T04:54:29;100292.13;;;19.54;86.50
74578;BME280;63173;49.086;33.418;2023-05-24T04:56:54;100296.72;;;19.50;85.49
74578;BME280;63173;49.086;33.418;2023-05-24T04:59:20;100296.50;;;20.07;82.96
74578;BME280;63173;49.086;33.418;2023-05-24T05:01:45;100290.44;;;20.02;81.84
74578;BME280;63173;49.086;33.418;2023-05-24T05:04:11;100289.78;;;19.81;82.74
74578;BME280;63173;49.086;33.418;2023-05-24T05:06:36;100303.38;;;20.13;82.17
74578;BME280;63173;49.086;33.418;2023-05-24T05:09:08;100301.91;;;20.04;82.90
74578;BME280;63173;49.086;33.418;2023-05-24T05:11:35;100303.81;;;19.76;84.48
74578;BME280;63173;49.086;33.418;2023-05-24T05:14:00;100309.06;;;19.93;84.45
74578;BME280;63173;49.086;33.418;2023-05-24T05:16:26;100321.63;;;20.30;81.75
74578;BME280;63173;49.086;33.418;2023-05-24T05:18:51;100320.25;;;20.24;83.35
74578;BME280;63173;49.086;33.418;2023-05-24T05:21:17;100312.88;;;20.16;83.59
74578;BME280;63173;49.086;33.418;2023-05-24T05:23:43;100316.34;;;20.13;82.24
74578;BME280;63173;49.086;33.418;2023-05-24T05:26:09;100325.41;;;20.25;82.01
74578;BME280;63173;49.086;33.418;2023-05-24T05:28:34;100329.59;;;20.47;82.28
74578;BME280;63173;49.086;33.418;2023-05-24T05:31:00;100328.41;;;20.08;82.54
74578;BME280;63173;49.086;33.418;2023-05-24T05:33:25;100332.81;;;20.49;82.33
74578;BME280;63173;49.086;33.418;2023-05-24T05:35:51;100327.16;;;20.18;82.81
74578;BME280;63173;49.086;33.418;2023-05-24T05:38:16;100334.41;;;20.22;83.38
74578;BME280;63173;49.086;33.418;2023-05-24T05:40:41;100339.69;;;20.71;81.74
74578;BME280;63173;49.086;33.418;2023-05-24T05:43:07;100339.28;;;21.12;79.82
74578;BME280;63173;49.086;33.418;2023-05-24T05:45:33;100334.16;;;21.29;78.43
74578;BME280;63173;49.086;33.418;2023-05-24T05:47:59;100329.41;;;20.83;79.73
74578;BME280;63173;49.086;33.418;2023-05-24T05:50:24;100337.50;;;20.92;79.42
74578;BME280;63173;49.086;33.418;2023-05-24T05:52:50;100337.81;;;21.18;78.79
74578;BME280;63173;49.086;33.418;2023-05-24T05:55:15;100342.28;;;21.38;78.02
74578;BME280;63173;49.086;33.418;2023-05-24T05:57:41;100339.44;;;21.03;79.65
74578;BME280;63173;49.086;33.418;2023-05-24T06:00:07;100338.78;;;20.94;80.07
74578;BME280;63173;49.086;33.418;2023-05-24T06:02:33;100344.75;;;20.69;80.39
74578;BME280;63173;49.086;33.418;2023-05-24T06:04:59;100342.38;;;21.10;79.43
74578;BME280;63173;49.086;33.418;2023-05-24T06:07:24;100333.47;;;21.32;78.00
74578;BME280;63173;49.086;33.418;2023-05-24T06:09:50;100341.25;;;21.77;77.72
74578;BME280;63173;49.086;33.418;2023-05-24T06:12:15;100343.00;;;21.19;79.03
74578;BME280;63173;49.086;33.418;2023-05-24T06:14:40;100339.66;;;21.76;77.41
74578;BME280;63173;49.086;33.418;2023-05-24T06:17:06;100342.75;;;22.25;75.34
74578;BME280;63173;49.086;33.418;2023-05-24T06:19:32;100346.91;;;22.34;74.74
74578;BME280;63173;49.086;33.418;2023-05-24T06:21:58;100344.34;;;22.26;74.49
74578;BME280;63173;49.086;33.418;2023-05-24T06:24:23;100343.81;;;22.20;74.88
74578;BME280;63173;49.086;33.418;2023-05-24T06:26:51;100337.47;;;22.39;73.92
74578;BME280;63173;49.086;33.418;2023-05-24T06:29:17;100335.84;;;22.34;74.46
74578;BME280;63173;49.086;33.418;2023-05-24T06:31:49;100335.88;;;22.00;74.68
74578;BME280;63173;49.086;33.418;2023-05-24T06:34:14;100338.78;;;21.88;75.79
74578;BME280;63173;49.086;33.418;2023-05-24T06:36:45;100334.00;;;21.53;76.54
74578;BME280;63173;49.086;33.418;2023-05-24T06:39:12;100339.34;;;21.15;77.56
74578;BME280;63173;49.086;33.418;2023-05-24T06:41:39;100334.97;;;21.30;78.39
74578;BME280;63173;49.086;33.418;2023-05-24T06:44:04;100329.00;;;21.43;77.82
74578;BME280;63173;49.086;33.418;2023-05-24T06:46:31;100332.00;;;21.85;76.17
74578;BME280;63173;49.086;33.418;2023-05-24T06:48:57;100342.31;;;22.42;74.32
74578;BME280;63173;49.086;33.418;2023-05-24T06:51:23;100339.22;;;22.09;74.71
74578;BME280;63173;49.086;33.418;2023-05-24T06:53:49;100334.47;;;21.75;75.15
74578;BME280;63173;49.086;33.418;2023-05-24T06:56:15;100351.00;;;21.09;76.81
74578;BME280;63173;49.086;33.418;2023-05-24T06:58:40;100344.88;;;21.15;77.57
74578;BME280;63173;49.086;33.418;2023-05-24T07:01:06;100344.38;;;21.76;75.08
74578;BME280;63173;49.086;33.418;2023-05-24T07:03:33;100338.72;;;22.03;74.61
74578;BME280;63173;49.086;33.418;2023-05-24T07:05:59;100336.09;;;21.76;74.87
74578;BME280;63173;49.086;33.418;2023-05-24T07:08:24;100335.06;;;21.99;74.26
74578;BME280;63173;49.086;33.418;2023-05-24T07:10:50;100337.34;;;21.78;75.29
74578;BME280;63173;49.086;33.418;2023-05-24T07:13:16;100338.06;;;21.60;75.52
74578;BME280;63173;49.086;33.418;2023-05-24T07:15:41;100340.56;;;21.65;76.24
74578;BME280;63173;49.086;33.418;2023-05-24T07:18:07;100335.59;;;21.39;77.28
74578;BME280;63173;49.086;33.418;2023-05-24T07:20:32;100336.75;;;22.04;75.50
74578;BME280;63173;49.086;33.418;2023-05-24T07:22:59;100337.22;;;22.25;73.86
74578;BME280;63173;49.086;33.418;2023-05-24T07:25:26;100329.94;;;22.74;71.93
74578;BME280;63173;49.086;33.418;2023-05-24T07:27:52;100340.34;;;22.62;71.52
74578;BME280;63173;49.086;33.418;2023-05-24T07:30:17;100330.94;;;22.47;72.08
74578;BME280;63173;49.086;33.418;2023-05-24T07:32:43;100333.50;;;22.36;72.11
74578;BME280;63173;49.086;33.418;2023-05-24T07:35:10;100337.72;;;22.50;71.27
74578;BME280;63173;49.086;33.418;2023-05-24T07:37:37;100339.38;;;22.73;70.27
74578;BME280;63173;49.086;33.418;2023-05-24T07:40:03;100338.41;;;22.85;70.19
74578;BME280;63173;49.086;33.418;2023-05-24T07:42:29;100340.56;;;22.34;71.58
74578;BME280;63173;49.086;33.418;2023-05-24T07:44:55;100331.75;;;22.28;72.26
74578;BME280;63173;49.086;33.418;2023-05-24T07:47:21;100339.00;;;21.98;73.23
74578;BME280;63173;49.086;33.418;2023-05-24T07:49:46;100341.50;;;22.22;72.85
74578;BME280;63173;49.086;33.418;2023-05-24T07:52:12;100343.84;;;22.59;70.54
74578;BME280;63173;49.086;33.418;2023-05-24T07:54:38;100340.25;;;23.42;68.03
74578;BME280;63173;49.086;33.418;2023-05-24T07:57:04;100342.34;;;23.74;66.20
74578;BME280;63173;49.086;33.418;2023-05-24T07:59:30;100338.50;;;24.38;64.06
74578;BME280;63173;49.086;33.418;2023-05-24T08:01:55;100329.59;;;23.96;64.62
74578;BME280;63173;49.086;33.418;2023-05-24T08:04:25;100335.19;;;23.73;65.04
74578;BME280;63173;49.086;33.418;2023-05-24T08:06:51;100333.53;;;23.43;65.93
74578;BME280;63173;49.086;33.418;2023-05-24T08:09:16;100339.38;;;23.38;66.61
74578;BME280;63173;49.086;33.418;2023-05-24T08:11:42;100342.13;;;23.60;66.07
74578;BME280;63173;49.086;33.418;2023-05-24T08:14:07;100331.84;;;23.61;65.01
74578;BME280;63173;49.086;33.418;2023-05-24T08:16:32;100331.03;;;23.86;64.45
74578;BME280;63173;49.086;33.418;2023-05-24T08:18:58;100325.13;;;23.88;63.02
74578;BME280;63173;49.086;33.418;2023-05-24T08:21:23;100329.47;;;23.14;65.12
74578;BME280;63173;49.086;33.418;2023-05-24T08:23:49;100323.50;;;23.34;65.12
74578;BME280;63173;49.086;33.418;2023-05-24T08:26:15;100325.00;;;23.55;63.60
74578;BME280;63173;49.086;33.418;2023-05-24T08:28:43;100314.03;;;23.88;62.98
74578;BME280;63173;49.086;33.418;2023-05-24T08:31:08;100307.56;;;24.06;61.10
74578;BME280;63173;49.086;33.418;2023-05-24T08:33:34;100303.81;;;24.91;58.88
74578;BME280;63173;49.086;33.418;2023-05-24T08:35:59;100305.06;;;24.64;59.46
74578;BME280;63173;49.086;33.418;2023-05-24T08:38:25;100308.94;;;24.89;58.83
74578;BME280;63173;49.086;33.418;2023-05-24T08:40:51;100303.75;;;24.51;58.88
74578;BME280;63173;49.086;33.418;2023-05-24T08:43:16;100291.78;;;24.80;58.72
74578;BME280;63173;49.086;33.418;2023-05-24T08:45:44;100295.91;;;24.97;58.18
74578;BME280;63173;49.086;33.418;2023-05-24T08:48:10;100298.38;;;25.05;58.68
74578;BME280;63173;49.086;33.418;2023-05-24T08:50:37;100296.63;;;25.88;57.33
74578;BME280;63173;49.086;33.418;2023-05-24T08:53:05;100282.63;;;26.53;54.37
74578;BME280;63173;49.086;33.418;2023-05-24T08:55:31;100293.84;;;25.88;53.50
74578;BME280;63173;49.086;33.418;2023-05-24T08:57:58;100297.19;;;26.12;53.81
74578;BME280;63173;49.086;33.418;2023-05-24T09:00:24;100298.78;;;26.20;54.44
74578;BME280;63173;49.086;33.418;2023-05-24T09:02:50;100291.94;;;24.58;59.08
74578;BME280;63173;49.086;33.418;2023-05-24T09:05:15;100289.13;;;24.54;59.90
74578;BME280;63173;49.086;33.418;2023-05-24T09:07:44;100287.97;;;24.95;58.35
74578;BME280;63173;49.086;33.418;2023-05-24T09:10:10;100297.59;;;25.52;56.87
74578;BME280;63173;49.086;33.418;2023-05-24T09:12:37;100297.00;;;25.33;56.81
74578;BME280;63173;49.086;33.418;2023-05-24T09:15:04;100295.41;;;25.28;57.87
74578;BME280;63173;49.086;33.418;2023-05-24T09:17:30;100289.44;;;25.30;57.01
74578;BME280;63173;49.086;33.418;2023-05-24T09:19:57;100289.84;;;24.51;58.27
74578;BME280;63173;49.086;33.418;2023-05-24T09:22:26;100290.94;;;24.76;57.72
74578;BME280;63173;49.086;33.418;2023-05-24T09:24:56;100283.13;;;25.87;55.54
74578;BME280;63173;49.086;33.418;2023-05-24T09:27:22;100295.97;;;25.48;56.59
74578;BME280;63173;49.086;33.418;2023-05-24T09:29:49;100291.03;;;25.81;55.91
74578;BME280;63173;49.086;33.418;2023-05-24T09:32:16;100295.91;;;24.97;57.48
74578;BME280;63173;49.086;33.418;2023-05-24T09:34:43;100296.88;;;25.62;55.37
74578;BME280;63173;49.086;33.418;2023-05-24T09:37:15;100307.28;;;25.76;54.93
74578;BME280;63173;49.086;33.418;2023-05-24T09:39:45;100296.81;;;26.24;52.75
74578;BME280;63173;49.086;33.418;2023-05-24T09:42:21;100295.44;;;26.89;50.70
74578;BME280;63173;49.086;33.418;2023-05-24T09:45:05;100290.91;;;26.32;50.93
74578;BME280;63173;49.086;33.418;2023-05-24T09:47:34;100298.38;;;25.49;54.14
74578;BME280;63173;49.086;33.418;2023-05-24T09:50:01;100292.63;;;24.84;57.59
74578;BME280;63173;49.086;33.418;2023-05-24T09:52:27;100304.09;;;24.46;57.13
74578;BME280;63173;49.086;33.418;2023-05-24T09:54:52;100304.06;;;25.23;55.47
74578;BME280;63173;49.086;33.418;2023-05-24T09:57:18;100298.59;;;25.30;55.56
74578;BME280;63173;49.086;33.418;2023-05-24T09:59:50;100305.13;;;26.13;54.51
74578;BME280;63173;49.086;33.418;2023-05-24T10:02:17;100294.78;;;26.10;53.64
74578;BME280;63173;49.086;33.418;2023-05-24T10:04:45;100286.81;;;26.08;52.46
74578;BME280;63173;49.086;33.418;2023-05-24T10:07:11;100297.06;;;27.26;51.42
74578;BME280;63173;49.086;33.418;2023-05-24T10:09:37;100291.00;;;26.67;47.01
74578;BME280;63173;49.086;33.418;2023-05-24T10:12:06;100292.63;;;26.72;46.54
74578;BME280;63173;49.086;33.418;2023-05-24T10:14:36;100291.88;;;27.31;45.04
74578;BME280;63173;49.086;33.418;2023-05-24T10:17:03;100283.94;;;27.47;46.79
74578;BME280;63173;49.086;33.418;2023-05-24T10:19:30;100277.91;;;27.66;43.10
74578;BME280;63173;49.086;33.418;2023-05-24T10:21:56;100284.31;;;27.21;44.25
74578;BME280;63173;49.086;33.418;2023-05-24T10:24:27;100284.13;;;26.26;54.36
74578;BME280;63173;49.086;33.418;2023-05-24T10:26:54;100278.94;;;26.25;55.39
74578;BME280;63173;49.086;33.418;2023-05-24T10:29:40;100274.81;;;25.97;53.90
74578;BME280;63173;49.086;33.418;2023-05-24T10:32:11;100276.75;;;25.90;55.94
74578;BME280;63173;49.086;33.418;2023-05-24T10:34:38;100271.84;;;25.62;56.56
74578;BME280;63173;49.086;33.418;2023-05-24T10:37:03;100276.16;;;25.56;55.92
74578;BME280;63173;49.086;33.418;2023-05-24T10:39:32;100281.75;;;26.39;54.49
74578;BME280;63173;49.086;33.418;2023-05-24T10:42:01;100275.91;;;27.63;49.14
74578;BME280;63173;49.086;33.418;2023-05-24T10:44:28;100271.97;;;27.61;47.29
74578;BME280;63173;49.086;33.418;2023-05-24T10:47:19;100273.94;;;27.46;47.13
74578;BME280;63173;49.086;33.418;2023-05-24T10:49:54;100279.53;;;27.46;48.55
74578;BME280;63173;49.086;33.418;2023-05-24T10:52:35;100283.94;;;27.44;46.14
74578;BME280;63173;49.086;33.418;2023-05-24T10:57:29;100290.84;;;26.25;47.54
74578;BME280;63173;49.086;33.418;2023-05-24T10:59:56;100289.69;;;26.30;47.90
74578;BME280;63173;49.086;33.418;2023-05-24T11:02:26;100292.91;;;26.39;47.56
74578;BME280;63173;49.086;33.418;2023-05-24T11:04:52;100295.84;;;26.77;46.26
74578;BME280;63173;49.086;33.418;2023-05-24T11:07:18;100294.22;;;26.69;46.41
74578;BME280;63173;49.086;33.418;2023-05-24T11:09:46;100296.91;;;26.48;47.18
74578;BME280;63173;49.086;33.418;2023-05-24T11:12:17;100295.16;;;26.08;47.99
74578;BME280;63173;49.086;33.418;2023-05-24T11:14:51;100292.19;;;25.73;48.00
74578;BME280;63173;49.086;33.418;2023-05-24T11:17:21;100292.47;;;25.61;48.38
74578;BME280;63173;49.086;33.418;2023-05-24T11:19:49;100284.69;;;25.84;48.96
74578;BME280;63173;49.086;33.418;2023-05-24T11:22:16;100300.44;;;25.63;48.27
74578;BME280;63173;49.086;33.418;2023-05-24T11:24:44;100292.66;;;25.35;48.10
74578;BME280;63173;49.086;33.418;2023-05-24T11:27:10;100294.13;;;25.18;48.86
74578;BME280;63173;49.086;33.418;2023-05-24T11:29:44;100302.94;;;25.78;46.89
74578;BME280;63173;49.086;33.418;2023-05-24T11:32:14;100298.63;;;25.95;46.74
74578;BME280;63173;49.086;33.418;2023-05-24T11:34:40;100303.25;;;25.66;47.31
74578;BME280;63173;49.086;33.418;2023-05-24T11:37:09;100296.94;;;25.73;47.40
74578;BME280;63173;49.086;33.418;2023-05-24T11:39:36;100292.19;;;25.77;47.98
74578;BME280;63173;49.086;33.418;2023-05-24T11:42:06;100285.09;;;25.32;51.62
74578;BME280;63173;49.086;33.418;2023-05-24T11:44:31;100291.47;;;24.89;53.52
74578;BME280;63173;49.086;33.418;2023-05-24T11:47:01;100293.66;;;24.03;56.28
74578;BME280;63173;49.086;33.418;2023-05-24T11:49:27;100287.59;;;23.97;56.07
74578;BME280;63173;49.086;33.418;2023-05-24T11:51:54;100290.88;;;24.36;55.23
74578;BME280;63173;49.086;33.418;2023-05-24T11:54:21;100292.25;;;24.86;53.62
74578;BME280;63173;49.086;33.418;2023-05-24T11:56:47;100291.41;;;24.45;54.39
74578;BME280;63173;49.086;33.418;2023-05-24T11:59:18;100291.00;;;24.83;54.28
74578;BME280;63173;49.086;33.418;2023-05-24T12:01:46;100286.81;;;24.63;55.03
74578;BME280;63173;49.086;33.418;2023-05-24T12:04:12;100283.06;;;24.45;56.29
74578;BME280;63173;49.086;33.418;2023-05-24T12:06:42;100287.41;;;24.79;55.88
74578;BME280;63173;49.086;33.418;2023-05-24T12:09:09;100296.25;;;24.55;57.56
74578;BME280;63173;49.086;33.418;2023-05-24T12:11:38;100299.47;;;24.61;57.77
74578;BME280;63173;49.086;33.418;2023-05-24T12:14:05;100304.75;;;24.03;60.05
74578;BME280;63173;49.086;33.418;2023-05-24T12:16:31;100300.56;;;23.90;59.46
74578;BME280;63173;49.086;33.418;2023-05-24T12:18:57;100299.47;;;23.68;59.90
74578;BME280;63173;49.086;33.418;2023-05-24T12:21:23;100301.28;;;23.31;60.39
74578;BME280;63173;49.086;33.418;2023-05-24T12:23:49;100310.34;;;23.09;62.11
74578;BME280;63173;49.086;33.418;2023-05-24T12:26:17;100309.94;;;23.07;63.03
74578;BME280;63173;49.086;33.418;2023-05-24T12:28:44;100318.09;;;22.77;65.11
74578;BME280;63173;49.086;33.418;2023-05-24T12:31:12;100332.66;;;23.16;63.49
74578;BME280;63173;49.086;33.418;2023-05-24T12:33:38;100331.88;;;22.74;65.46
74578;BME280;63173;49.086;33.418;2023-05-24T12:36:04;100335.34;;;21.79;74.33
74578;BME280;63173;49.086;33.418;2023-05-24T12:38:30;100353.47;;;20.55;80.60
74578;BME280;63173;49.086;33.418;2023-05-24T12:40:55;100356.88;;;19.48;88.67
74578;BME280;63173;49.086;33.418;2023-05-24T12:43:21;100353.72;;;19.14;91.33
74578;BME280;63173;49.086;33.418;2023-05-24T12:45:47;100341.84;;;18.77;91.73
74578;BME280;63173;49.086;33.418;2023-05-24T12:48:12;100340.91;;;18.73;92.17
74578;BME280;63173;49.086;33.418;2023-05-24T12:50:38;100350.28;;;18.72;93.47
74578;BME280;63173;49.086;33.418;2023-05-24T12:53:03;100340.13;;;18.52;95.74